createdAt,value
2023-08-12T00:01:10.947Z,9.37
2023-08-12T00:03:39.023Z,8.77
2023-08-12T00:06:07.127Z,9.10
2023-08-12T00:08:35.030Z,8.97
2023-08-12T00:11:02.988Z,9.80
2023-08-12T00:13:31.051Z,9.03
2023-08-12T00:15:59.155Z,9.10
2023-08-12T00:18:28.606Z,9.33
2023-08-12T00:20:56.549Z,8.60
2023-08-12T00:23:24.482Z,9.93
2023-08-12T00:25:52.678Z,9.60
2023-08-12T00:28:20.571Z,9.60
2023-08-12T00:30:50.703Z,9.57
2023-08-12T00:33:19.516Z,9.33
2023-08-12T00:35:48.858Z,9.50
2023-08-12T00:38:16.902Z,9.13
2023-08-12T00:40:44.807Z,9.50
2023-08-12T00:43:12.725Z,9.17
2023-08-12T00:45:40.923Z,8.27
2023-08-12T00:48:12.460Z,9.27
2023-08-12T00:50:43.507Z,8.60
2023-08-12T00:53:14.392Z,9.10
2023-08-12T00:55:42.435Z,8.60
2023-08-12T00:58:10.928Z,8.10
2023-08-12T01:00:39.226Z,10.10
2023-08-12T01:03:08.235Z,8.23
2023-08-12T01:05:38.511Z,9.20
2023-08-12T01:08:08.073Z,8.80
2023-08-12T01:10:39.063Z,9.57
2023-08-12T01:13:18.576Z,9.10
2023-08-12T01:15:47.353Z,8.20
2023-08-12T01:18:17.336Z,9.23
2023-08-12T01:20:45.576Z,9.07
2023-08-12T01:23:15.610Z,10.27
2023-08-12T01:25:44.305Z,9.87
2023-08-12T01:28:12.328Z,9.37
2023-08-12T01:30:49.176Z,9.23
2023-08-12T01:33:21.581Z,8.53
2023-08-12T01:35:55.019Z,10.50
2023-08-12T01:38:26.519Z,9.93
2023-08-12T01:40:55.701Z,9.57
2023-08-12T01:43:24.816Z,11.10
2023-08-12T01:45:52.909Z,9.53
2023-08-12T01:48:21.326Z,10.53
2023-08-12T01:50:49.276Z,9.93
2023-08-12T01:53:17.218Z,11.47
2023-08-12T01:55:47.658Z,10.80
2023-08-12T02:00:43.435Z,11.90
2023-08-12T02:03:11.466Z,11.97
2023-08-12T02:05:39.472Z,12.40
2023-08-12T02:08:07.950Z,12.00
2023-08-12T02:10:36.301Z,12.90
2023-08-12T02:13:06.109Z,12.63
2023-08-12T02:15:33.981Z,13.63
2023-08-12T02:18:01.912Z,14.33
2023-08-12T02:20:29.846Z,14.70
2023-08-12T02:22:57.706Z,14.57
2023-08-12T02:25:25.605Z,14.67
2023-08-12T02:27:53.508Z,14.60
2023-08-12T02:30:22.950Z,16.03
2023-08-12T02:32:50.948Z,16.37
2023-08-12T02:35:20.945Z,16.30
2023-08-12T02:37:50.224Z,15.00
2023-08-12T02:40:18.560Z,15.57
2023-08-12T02:42:46.499Z,16.27
2023-08-12T02:45:14.369Z,15.90
2023-08-12T02:47:43.694Z,15.87
2023-08-12T02:50:11.779Z,16.67
2023-08-12T02:52:39.716Z,16.30
2023-08-12T02:55:08.168Z,17.77
2023-08-12T02:57:36.085Z,17.70
2023-08-12T03:00:06.416Z,17.70
2023-08-12T03:02:34.325Z,16.20
2023-08-12T03:05:03.857Z,16.50
2023-08-12T03:07:31.820Z,15.57
2023-08-12T03:10:00.864Z,15.10
2023-08-12T03:12:29.009Z,13.57
2023-08-12T03:14:56.983Z,14.30
2023-08-12T03:17:25.013Z,12.17
2023-08-12T03:19:52.922Z,12.57
2023-08-12T03:22:22.205Z,10.67
2023-08-12T03:24:51.183Z,10.87
2023-08-12T03:27:19.065Z,10.73
2023-08-12T03:29:47.442Z,10.67
2023-08-12T03:32:15.477Z,10.30
2023-08-12T03:34:43.353Z,9.70
2023-08-12T03:37:11.611Z,9.53
2023-08-12T03:39:41.057Z,10.00
2023-08-12T03:42:09.006Z,9.17
2023-08-12T03:44:36.916Z,10.37
2023-08-12T03:47:05.054Z,9.30
2023-08-12T03:49:33.032Z,8.60
2023-08-12T03:52:00.930Z,8.50
2023-08-12T03:54:29.366Z,8.83
2023-08-12T03:56:58.575Z,9.73
2023-08-12T03:59:26.727Z,8.70
2023-08-12T04:01:54.622Z,9.33
2023-08-12T04:04:22.589Z,8.90
2023-08-12T04:06:52.413Z,9.50
2023-08-12T04:09:20.483Z,9.10
2023-08-12T04:11:49.089Z,8.93
2023-08-12T04:14:18.358Z,9.13
2023-08-12T04:16:46.289Z,9.07
2023-08-12T04:19:14.264Z,8.97
2023-08-12T04:21:42.189Z,9.70
2023-08-12T04:24:10.765Z,8.83
2023-08-12T04:26:38.674Z,8.73
2023-08-12T04:29:06.575Z,8.20
2023-08-12T04:31:35.882Z,8.20
2023-08-12T04:34:05.016Z,8.40
2023-08-12T04:36:32.980Z,7.87
2023-08-12T04:39:00.931Z,7.30
2023-08-12T04:41:29.024Z,7.87
2023-08-12T04:43:57.414Z,8.13
2023-08-12T04:46:25.424Z,8.07
2023-08-12T04:48:54.711Z,8.00
2023-08-12T04:51:22.721Z,7.83
2023-08-12T04:53:50.665Z,7.80
2023-08-12T04:56:19.269Z,7.20
2023-08-12T04:58:47.493Z,7.77
2023-08-12T05:01:15.432Z,7.40
2023-08-12T05:03:43.479Z,7.47
2023-08-12T05:06:12.784Z,7.10
2023-08-12T05:08:40.739Z,6.90
2023-08-12T05:11:08.634Z,6.90
2023-08-12T05:13:39.022Z,6.60
2023-08-12T05:16:07.138Z,6.90
2023-08-12T05:18:35.078Z,6.67
2023-08-12T05:21:02.951Z,6.30
2023-08-12T05:23:32.317Z,6.53
2023-08-12T05:26:00.298Z,6.80
2023-08-12T05:30:56.043Z,6.80
2023-08-12T05:33:25.171Z,6.47
2023-08-12T05:35:53.397Z,6.30
2023-08-12T05:38:21.598Z,6.50
2023-08-12T05:40:50.876Z,7.10
2023-08-12T05:43:19.137Z,7.43
2023-08-12T05:45:47.142Z,6.53
2023-08-12T05:48:15.080Z,7.47
2023-08-12T05:50:43.030Z,6.53
2023-08-12T05:53:11.053Z,7.40
2023-08-12T05:55:38.977Z,7.03
2023-08-12T05:58:10.504Z,7.27
2023-08-12T06:00:38.413Z,7.63
2023-08-12T06:03:06.679Z,7.50
2023-08-12T06:05:34.739Z,7.67
2023-08-12T06:08:02.918Z,8.07
2023-08-12T06:12:58.913Z,7.63
2023-08-12T06:15:28.394Z,7.20
2023-08-12T06:17:56.430Z,6.13
2023-08-12T06:20:25.262Z,5.93
2023-08-12T06:22:53.967Z,4.67
2023-08-12T06:25:22.119Z,4.73
2023-08-12T06:27:50.211Z,4.30
2023-08-12T06:30:18.362Z,3.80
2023-08-12T06:32:49.325Z,3.80
2023-08-12T06:35:17.584Z,3.40
2023-08-12T06:37:45.592Z,3.70
2023-08-12T06:40:13.562Z,3.50
2023-08-12T06:42:41.704Z,3.13
2023-08-12T06:45:11.220Z,3.20
2023-08-12T06:47:39.183Z,3.00
2023-08-12T06:50:09.086Z,3.37
2023-08-12T06:52:37.445Z,3.53
2023-08-12T06:55:05.787Z,3.53
2023-08-12T06:57:33.731Z,3.30
2023-08-12T07:00:01.643Z,3.20
2023-08-12T07:02:29.610Z,3.30
2023-08-12T07:04:57.608Z,3.20
2023-08-12T07:07:26.915Z,2.87
2023-08-12T07:09:55.017Z,3.23
2023-08-12T07:12:22.909Z,3.10
2023-08-12T07:14:51.089Z,2.77
2023-08-12T07:17:19.138Z,3.63
2023-08-12T07:19:47.206Z,2.90
2023-08-12T07:22:15.279Z,2.50
2023-08-12T07:24:44.597Z,2.77
2023-08-12T07:27:12.649Z,3.10
2023-08-12T07:29:40.566Z,2.70
2023-08-12T07:32:08.437Z,3.17
2023-08-12T07:34:36.465Z,2.60
2023-08-12T07:37:04.340Z,2.80
2023-08-12T07:39:32.993Z,2.77
2023-08-12T07:42:02.227Z,2.50
2023-08-12T07:44:30.154Z,2.60
2023-08-12T07:46:58.202Z,3.07
2023-08-12T07:49:26.146Z,3.00
2023-08-12T07:51:54.098Z,2.33
2023-08-12T07:54:22.042Z,2.93
2023-08-12T07:56:49.977Z,2.83
2023-08-12T07:59:19.227Z,2.40
2023-08-12T08:01:47.197Z,2.77
2023-08-12T08:04:15.377Z,2.73
2023-08-12T08:06:43.295Z,2.77
2023-08-12T08:09:11.543Z,2.57
2023-08-12T08:11:39.572Z,2.50
2023-08-12T08:14:07.573Z,2.70
2023-08-12T08:16:37.756Z,2.33
2023-08-12T08:19:05.833Z,2.40
2023-08-12T08:21:33.804Z,2.47
2023-08-12T08:24:02.043Z,2.30
2023-08-12T08:26:30.012Z,2.53
2023-08-12T08:28:57.904Z,2.20
2023-08-12T08:31:26.116Z,2.10
2023-08-12T08:33:56.548Z,2.57
2023-08-12T08:36:24.461Z,2.37
2023-08-12T08:38:52.593Z,2.00
2023-08-12T08:41:21.343Z,2.80
2023-08-12T08:43:50.669Z,2.37
2023-08-12T08:46:19.216Z,2.50
2023-08-12T08:48:48.842Z,2.27
2023-08-12T08:51:19.861Z,1.90
2023-08-12T08:53:48.461Z,2.57
2023-08-12T08:56:16.672Z,2.10
2023-08-12T08:58:44.732Z,2.37
2023-08-12T09:01:13.395Z,2.33
2023-08-12T09:03:44.727Z,2.70
2023-08-12T09:06:13.025Z,2.50
2023-08-12T09:08:45.704Z,2.60
2023-08-12T09:11:15.610Z,2.33
2023-08-12T09:13:43.948Z,2.20
2023-08-12T09:16:12.040Z,2.30
2023-08-12T09:18:40.186Z,2.30
2023-08-12T09:21:08.425Z,2.20
2023-08-12T09:23:37.632Z,2.33
2023-08-12T09:26:15.234Z,3.10
2023-08-12T09:28:43.894Z,2.00
2023-08-12T09:31:24.764Z,1.80
2023-08-12T09:33:53.227Z,1.90
2023-08-12T09:36:23.274Z,2.00
2023-08-12T09:38:51.416Z,2.00
2023-08-12T09:41:21.024Z,1.77
2023-08-12T09:43:48.911Z,1.90
2023-08-12T09:46:16.902Z,2.23
2023-08-12T09:48:45.357Z,2.00
2023-08-12T09:51:13.369Z,1.90
2023-08-12T09:53:44.250Z,1.90
2023-08-12T09:56:15.320Z,1.73
2023-08-12T09:58:45.967Z,2.17
2023-08-12T10:01:14.851Z,1.63
2023-08-12T10:03:46.950Z,2.00
2023-08-12T10:06:16.733Z,2.13
2023-08-12T10:08:45.784Z,1.70
2023-08-12T10:11:14.302Z,2.03
2023-08-12T10:13:44.148Z,1.87
2023-08-12T10:16:12.753Z,2.00
2023-08-12T10:18:41.892Z,1.63
2023-08-12T10:21:12.847Z,1.87
2023-08-12T10:23:42.537Z,1.80
2023-08-12T10:26:11.763Z,2.07
2023-08-12T10:28:39.792Z,2.17
2023-08-12T10:31:09.376Z,1.83
2023-08-12T10:33:38.858Z,1.70
2023-08-12T10:36:08.112Z,2.03
2023-08-12T10:38:36.797Z,1.83
2023-08-12T10:41:19.002Z,1.87
2023-08-12T10:43:57.270Z,1.60
2023-08-12T10:46:32.733Z,1.57
2023-08-12T10:49:04.825Z,1.80
2023-08-12T10:51:49.084Z,1.50
2023-08-12T10:54:23.099Z,1.83
2023-08-12T10:57:15.803Z,2.00
2023-08-12T10:59:54.120Z,2.10
2023-08-12T11:02:28.027Z,1.90
2023-08-12T11:04:58.124Z,1.60
2023-08-12T11:07:33.872Z,1.40
2023-08-12T11:10:06.807Z,1.30
2023-08-12T11:12:36.640Z,1.30
2023-08-12T11:15:06.340Z,1.30
2023-08-12T11:17:40.076Z,1.40
2023-08-12T11:20:10.740Z,1.20
2023-08-12T11:22:39.857Z,1.30
2023-08-12T11:25:09.745Z,1.13
2023-08-12T11:27:42.922Z,1.07
2023-08-12T11:30:12.348Z,1.60
2023-08-12T11:32:42.630Z,1.40
2023-08-12T11:35:12.080Z,2.73
2023-08-12T11:37:40.088Z,1.40
2023-08-12T11:40:10.789Z,1.33
2023-08-12T11:42:39.337Z,1.30
2023-08-12T11:45:09.096Z,1.40
2023-08-12T11:47:38.910Z,1.13
2023-08-12T11:50:09.780Z,1.00
2023-08-12T11:52:38.594Z,1.10
2023-08-12T11:55:07.999Z,1.00
2023-08-12T11:57:36.592Z,1.00
2023-08-12T12:00:12.953Z,1.10
2023-08-12T12:02:47.471Z,1.00
2023-08-12T12:05:23.598Z,1.20
2023-08-12T12:07:52.757Z,1.30
2023-08-12T12:10:21.869Z,1.10
2023-08-12T12:12:50.555Z,0.93
2023-08-12T12:15:18.561Z,1.20
2023-08-12T12:17:47.887Z,1.20
2023-08-12T12:20:17.261Z,1.00
2023-08-12T12:22:47.250Z,0.97
2023-08-12T12:25:17.074Z,1.17
2023-08-12T12:27:47.276Z,1.00
2023-08-12T12:30:17.027Z,1.27
2023-08-12T12:32:46.043Z,1.00
2023-08-12T12:35:14.175Z,0.90
2023-08-12T12:37:43.699Z,0.70
2023-08-12T12:40:13.044Z,1.80
2023-08-12T12:42:41.299Z,0.90
2023-08-12T12:45:10.745Z,0.90
2023-08-12T12:47:39.652Z,1.00
2023-08-12T12:50:08.847Z,0.83
2023-08-12T12:52:37.211Z,0.80
2023-08-12T12:55:07.029Z,0.90
2023-08-12T12:57:35.390Z,0.87
2023-08-12T13:00:05.263Z,0.90
2023-08-12T13:02:33.422Z,0.90
2023-08-12T13:05:01.535Z,0.70
2023-08-12T13:07:29.508Z,0.80
2023-08-12T13:09:57.453Z,0.83
2023-08-12T13:12:26.772Z,0.80
2023-08-12T13:14:54.715Z,0.90
2023-08-12T13:17:22.634Z,0.67
2023-08-12T13:19:50.593Z,0.80
2023-08-12T13:22:18.512Z,1.13
2023-08-12T13:24:46.816Z,0.70
2023-08-12T13:27:15.856Z,0.43
2023-08-12T13:29:45.313Z,0.50
2023-08-12T13:32:13.611Z,0.40
2023-08-12T13:34:44.120Z,0.60
2023-08-12T13:37:12.209Z,0.40
2023-08-12T13:39:41.110Z,0.60
2023-08-12T13:42:09.083Z,0.67
2023-08-12T13:44:37.049Z,0.60
2023-08-12T13:47:06.341Z,0.83
2023-08-12T13:49:34.393Z,0.97
2023-08-12T13:52:02.320Z,0.70
2023-08-12T13:54:30.230Z,0.90
2023-08-12T13:56:58.124Z,0.87
2023-08-12T13:59:27.087Z,1.10
2023-08-12T14:01:55.132Z,0.67
2023-08-12T14:04:24.777Z,0.50
2023-08-12T14:06:53.093Z,0.70
2023-08-12T14:09:23.154Z,0.40
2023-08-12T14:11:51.073Z,1.10
2023-08-12T14:14:19.072Z,0.73
2023-08-12T14:16:47.030Z,0.90
2023-08-12T14:19:17.671Z,0.70
2023-08-12T14:21:47.005Z,0.60
2023-08-12T14:24:15.230Z,0.60
2023-08-12T14:26:43.139Z,0.80
2023-08-12T14:29:11.131Z,0.67
2023-08-12T14:31:39.368Z,0.50
2023-08-12T14:34:07.345Z,0.80
2023-08-12T14:36:37.035Z,0.50
2023-08-12T14:39:06.698Z,0.70
2023-08-12T14:41:35.217Z,0.70
2023-08-12T14:44:03.395Z,0.40
2023-08-12T14:46:31.417Z,0.60
2023-08-12T14:48:59.402Z,0.60
2023-08-12T14:51:27.437Z,0.60
2023-08-12T14:53:55.334Z,0.70
2023-08-12T14:56:24.703Z,0.60
2023-08-12T14:58:52.676Z,0.63
2023-08-12T15:01:20.820Z,0.80
2023-08-12T15:03:48.857Z,0.57
2023-08-12T15:06:17.688Z,0.70
2023-08-12T15:08:45.670Z,0.70
2023-08-12T15:11:13.605Z,1.00
2023-08-12T15:13:42.950Z,0.93
2023-08-12T15:16:12.175Z,1.10
2023-08-12T15:18:40.198Z,0.80
2023-08-12T15:21:08.110Z,0.80
2023-08-12T15:23:36.327Z,0.87
2023-08-12T15:26:04.789Z,0.87
2023-08-12T15:28:32.735Z,0.67
2023-08-12T15:31:02.094Z,0.60
2023-08-12T15:33:30.073Z,0.90
2023-08-12T15:35:58.083Z,0.97
2023-08-12T15:38:26.095Z,0.70
2023-08-12T15:40:54.003Z,1.90
2023-08-12T15:43:22.051Z,1.07
2023-08-12T15:45:50.090Z,1.90
2023-08-12T15:48:19.434Z,1.10
2023-08-12T15:50:47.381Z,0.93
2023-08-12T15:53:15.464Z,0.90
2023-08-12T15:55:43.395Z,1.17
2023-08-12T15:58:11.726Z,1.00
2023-08-12T16:00:44.063Z,0.90
2023-08-12T16:03:12.219Z,0.83
2023-08-12T16:05:41.771Z,0.70
2023-08-12T16:08:10.529Z,0.80
2023-08-12T16:10:38.662Z,1.00
2023-08-12T16:13:07.242Z,1.00
2023-08-12T16:15:35.520Z,1.07
2023-08-12T16:18:03.503Z,1.10
2023-08-12T16:20:31.556Z,1.00
2023-08-12T16:23:01.052Z,0.80
2023-08-12T16:25:29.016Z,0.80
2023-08-12T16:27:56.951Z,1.20
2023-08-12T16:30:24.962Z,1.10
2023-08-12T16:32:52.956Z,1.40
2023-08-12T16:35:21.205Z,1.10
2023-08-12T16:37:49.133Z,1.33
2023-08-12T16:40:20.199Z,0.90
2023-08-12T16:42:48.144Z,1.07
2023-08-12T16:45:16.106Z,1.33
2023-08-12T16:47:44.154Z,1.30
2023-08-12T16:50:12.503Z,1.20
2023-08-12T16:52:40.466Z,1.30
2023-08-12T16:55:09.254Z,1.30
2023-08-12T16:57:38.604Z,1.47
2023-08-12T17:00:08.994Z,1.60
2023-08-12T17:02:36.978Z,1.37
2023-08-12T17:05:05.494Z,1.70
2023-08-12T17:07:33.384Z,1.53
2023-08-12T17:10:01.601Z,1.80
2023-08-12T17:12:29.683Z,1.60
2023-08-12T17:14:58.994Z,1.70
2023-08-12T17:17:27.021Z,1.80
2023-08-12T17:19:55.012Z,1.40
2023-08-12T17:22:23.118Z,1.60
2023-08-12T17:24:51.128Z,1.80
2023-08-12T17:27:19.030Z,1.60
2023-08-12T17:29:46.934Z,1.67
2023-08-12T17:32:16.429Z,1.70
2023-08-12T17:34:44.533Z,1.57
2023-08-12T17:37:12.494Z,1.50
2023-08-12T17:39:41.196Z,1.47
2023-08-12T17:42:09.127Z,1.57
2023-08-12T17:44:37.047Z,1.70
2023-08-12T17:47:05.086Z,1.90
2023-08-12T17:49:34.363Z,1.77
2023-08-12T17:52:03.092Z,1.70
2023-08-12T17:54:31.102Z,1.80
2023-08-12T17:56:59.075Z,1.90
2023-08-12T17:59:26.982Z,1.83
2023-08-12T18:01:54.971Z,1.80
2023-08-12T18:04:22.880Z,2.10
2023-08-12T18:06:52.149Z,2.33
2023-08-12T18:09:20.769Z,2.17
2023-08-12T18:11:48.807Z,1.60
2023-08-12T18:14:17.354Z,2.30
2023-08-12T18:16:45.491Z,1.80
2023-08-12T18:19:13.524Z,1.40
2023-08-12T18:21:41.516Z,1.70
2023-08-12T18:24:10.961Z,2.00
2023-08-12T18:26:38.948Z,1.90
2023-08-12T18:29:08.248Z,2.13
2023-08-12T18:31:39.617Z,1.70
2023-08-12T18:34:08.078Z,1.63
2023-08-12T18:36:36.031Z,1.47
2023-08-12T18:39:04.127Z,1.67
2023-08-12T18:41:33.654Z,2.30
2023-08-12T18:44:01.776Z,1.97
2023-08-12T18:46:30.064Z,1.97
2023-08-12T18:48:58.037Z,1.87
2023-08-12T18:51:25.990Z,1.80
2023-08-12T18:53:55.747Z,1.80
2023-08-12T18:56:24.615Z,1.83
2023-08-12T18:58:54.554Z,2.00
2023-08-12T19:01:23.765Z,1.70
2023-08-12T19:03:51.739Z,2.03
2023-08-12T19:06:19.672Z,2.03
2023-08-12T19:08:47.644Z,2.30
2023-08-12T19:11:15.636Z,1.70
2023-08-12T19:13:43.573Z,2.40
2023-08-12T19:16:12.903Z,2.23
2023-08-12T19:18:40.891Z,2.53
2023-08-12T19:21:09.015Z,2.10
2023-08-12T19:23:36.942Z,2.00
2023-08-12T19:26:04.955Z,2.40
2023-08-12T19:28:32.914Z,2.40
2023-08-12T19:31:00.842Z,2.00
2023-08-12T19:33:30.098Z,2.47
2023-08-12T19:35:58.022Z,2.57
2023-08-12T19:38:26.555Z,2.23
2023-08-12T19:40:55.049Z,1.90
2023-08-12T19:43:23.102Z,1.83
2023-08-12T19:45:51.042Z,2.00
2023-08-12T19:48:19.029Z,2.17
2023-08-12T19:50:50.635Z,2.63
2023-08-12T19:53:18.575Z,2.77
2023-08-12T19:55:46.502Z,2.40
2023-08-12T19:58:14.397Z,3.00
2023-08-12T20:00:42.753Z,2.90
2023-08-12T20:03:10.837Z,2.80
2023-08-12T20:05:38.900Z,3.13
2023-08-12T20:08:09.776Z,3.17
2023-08-12T20:10:37.976Z,3.03
2023-08-12T20:13:06.116Z,3.37
2023-08-12T20:15:34.316Z,3.23
2023-08-12T20:18:02.273Z,3.40
2023-08-12T20:20:30.296Z,2.97
2023-08-12T20:23:06.132Z,3.60
2023-08-12T20:25:37.800Z,3.10
2023-08-12T20:28:06.557Z,3.07
2023-08-12T20:30:34.819Z,3.20
2023-08-12T20:33:03.344Z,3.30
2023-08-12T20:35:32.159Z,2.77
2023-08-12T20:38:00.237Z,3.07
2023-08-12T20:40:28.322Z,3.33
2023-08-12T20:42:57.592Z,3.07
2023-08-12T20:45:25.614Z,2.93
2023-08-12T20:47:53.629Z,3.20
2023-08-12T20:50:21.767Z,2.73
2023-08-12T20:52:49.718Z,3.20
2023-08-12T20:55:17.783Z,2.87
2023-08-12T20:57:47.092Z,3.50
2023-08-12T21:00:16.818Z,3.27
2023-08-12T21:02:45.887Z,2.70
2023-08-12T21:05:14.199Z,3.03
2023-08-12T21:07:42.766Z,3.10
2023-08-12T21:10:11.402Z,3.00
2023-08-12T21:12:39.852Z,3.30
2023-08-12T21:15:08.611Z,2.97
2023-08-12T21:17:37.923Z,3.10
2023-08-12T21:20:06.866Z,3.50
2023-08-12T21:22:34.824Z,3.00
2023-08-12T21:25:02.757Z,2.87
2023-08-12T21:27:30.757Z,3.00
2023-08-12T21:29:58.820Z,2.40
2023-08-12T21:32:26.815Z,2.80
2023-08-12T21:34:56.223Z,3.60
2023-08-12T21:37:24.248Z,2.90
2023-08-12T21:39:52.177Z,3.17
2023-08-12T21:42:20.524Z,3.10
2023-08-12T21:44:48.489Z,3.23
2023-08-12T21:47:16.391Z,2.90
2023-08-12T21:49:44.292Z,3.03
2023-08-12T21:52:13.806Z,3.20
2023-08-12T21:54:44.224Z,2.90
2023-08-12T21:57:12.539Z,3.03
2023-08-12T21:59:40.455Z,3.10
2023-08-12T22:02:08.366Z,3.00
2023-08-12T22:04:36.380Z,2.80
2023-08-12T22:07:05.576Z,2.73
2023-08-12T22:09:35.409Z,2.80
2023-08-12T22:12:04.217Z,2.37
2023-08-12T22:14:33.232Z,3.00
2023-08-12T22:17:01.197Z,3.40
2023-08-12T22:19:29.138Z,2.97
2023-08-12T22:22:05.351Z,2.90
2023-08-12T22:24:42.882Z,3.27
2023-08-12T22:27:10.997Z,3.53
2023-08-12T22:29:40.034Z,2.53
2023-08-12T22:32:08.161Z,3.30
2023-08-12T22:34:36.207Z,3.17
2023-08-12T22:37:04.208Z,2.70
2023-08-12T22:39:32.144Z,3.00
2023-08-12T22:42:01.380Z,2.90
2023-08-12T22:44:29.342Z,2.67
2023-08-12T22:46:57.292Z,2.60
2023-08-12T22:49:25.217Z,3.20
2023-08-12T22:51:53.160Z,2.67
2023-08-12T22:54:22.070Z,2.90
2023-08-12T22:56:50.012Z,2.60
2023-08-12T22:59:19.510Z,3.27
2023-08-12T23:01:47.504Z,3.23
2023-08-12T23:04:15.462Z,3.30
2023-08-12T23:06:43.591Z,3.57
2023-08-12T23:09:11.505Z,3.60
2023-08-12T23:11:39.484Z,3.53
2023-08-12T23:14:07.420Z,3.10
2023-08-12T23:16:36.716Z,3.70
2023-08-12T23:19:04.934Z,3.43
2023-08-12T23:21:35.126Z,3.10
2023-08-12T23:24:03.008Z,4.10
2023-08-12T23:26:32.830Z,3.87
2023-08-12T23:29:00.871Z,4.60
2023-08-12T23:31:28.937Z,4.20
2023-08-12T23:33:58.173Z,4.20
2023-08-12T23:36:26.247Z,3.90
2023-08-12T23:38:54.200Z,3.97
2023-08-12T23:41:22.151Z,3.53
2023-08-12T23:43:50.890Z,3.93
2023-08-12T23:46:18.981Z,3.80
2023-08-12T23:48:46.928Z,3.83
2023-08-12T23:51:16.417Z,3.47
2023-08-12T23:53:44.392Z,4.27
2023-08-12T23:56:12.355Z,3.20
2023-08-12T23:58:40.266Z,3.90
